sensor_id;sensor_type;location;lat;lon;timestamp;temperature;humidity
24470;DHT22;12635;50.852;5.676;2023-02-12T00:01:09;7.30;99.90
24470;DHT22;12635;50.852;5.676;2023-02-12T00:03:36;7.30;99.90
24470;DHT22;12635;50.852;5.676;2023-02-12T00:06:03;7.30;99.90
24470;DHT22;12635;50.852;5.676;2023-02-12T00:08:32;7.30;99.90
24470;DHT22;12635;50.852;5.676;2023-02-12T00:10:59;7.30;99.90
24470;DHT22;12635;50.852;5.676;2023-02-12T00:13:25;7.30;99.90
24470;DHT22;12635;50.852;5.676;2023-02-12T00:15:56;7.30;99.90
24470;DHT22;12635;50.852;5.676;2023-02-12T00:18:22;7.30;99.90
24470;DHT22;12635;50.852;5.676;2023-02-12T00:20:49;7.30;99.90
24470;DHT22;12635;50.852;5.676;2023-02-12T00:23:16;7.30;99.90
24470;DHT22;12635;50.852;5.676;2023-02-12T00:25:44;7.40;99.90
24470;DHT22;12635;50.852;5.676;2023-02-12T00:28:11;7.30;99.90
24470;DHT22;12635;50.852;5.676;2023-02-12T00:30:38;7.40;99.90
24470;DHT22;12635;50.852;5.676;2023-02-12T00:33:05;7.40;99.90
24470;DHT22;12635;50.852;5.676;2023-02-12T00:35:32;7.40;99.90
24470;DHT22;12635;50.852;5.676;2023-02-12T00:37:59;7.50;99.90
24470;DHT22;12635;50.852;5.676;2023-02-12T00:40:26;7.50;99.90
24470;DHT22;12635;50.852;5.676;2023-02-12T00:42:54;7.50;99.90
24470;DHT22;12635;50.852;5.676;2023-02-12T00:45:21;7.40;99.90
24470;DHT22;12635;50.852;5.676;2023-02-12T00:47:48;7.40;99.90
24470;DHT22;12635;50.852;5.676;2023-02-12T00:50:15;7.40;99.90
24470;DHT22;12635;50.852;5.676;2023-02-12T00:52:42;7.40;99.90
24470;DHT22;12635;50.852;5.676;2023-02-12T00:55:09;7.40;99.90
24470;DHT22;12635;50.852;5.676;2023-02-12T00:57:36;7.40;99.90
24470;DHT22;12635;50.852;5.676;2023-02-12T01:00:05;7.40;99.90
24470;DHT22;12635;50.852;5.676;2023-02-12T01:02:32;7.30;99.90
24470;DHT22;12635;50.852;5.676;2023-02-12T01:04:58;7.30;99.90
24470;DHT22;12635;50.852;5.676;2023-02-12T01:07:25;7.30;99.90
24470;DHT22;12635;50.852;5.676;2023-02-12T01:09:52;7.20;99.90
24470;DHT22;12635;50.852;5.676;2023-02-12T01:12:19;7.20;99.90
24470;DHT22;12635;50.852;5.676;2023-02-12T01:14:46;7.30;99.90
24470;DHT22;12635;50.852;5.676;2023-02-12T01:17:14;7.30;99.90
24470;DHT22;12635;50.852;5.676;2023-02-12T01:19:41;7.30;99.90
24470;DHT22;12635;50.852;5.676;2023-02-12T01:22:08;7.30;99.90
24470;DHT22;12635;50.852;5.676;2023-02-12T01:24:35;7.40;99.90
24470;DHT22;12635;50.852;5.676;2023-02-12T01:27:02;7.30;99.90
24470;DHT22;12635;50.852;5.676;2023-02-12T01:29:29;7.30;99.90
24470;DHT22;12635;50.852;5.676;2023-02-12T01:31:56;7.40;99.90
24470;DHT22;12635;50.852;5.676;2023-02-12T01:34:24;7.30;99.90
24470;DHT22;12635;50.852;5.676;2023-02-12T01:36:51;7.30;99.90
24470;DHT22;12635;50.852;5.676;2023-02-12T01:39:18;7.30;99.90
24470;DHT22;12635;50.852;5.676;2023-02-12T01:41:45;7.40;99.90
24470;DHT22;12635;50.852;5.676;2023-02-12T01:44:14;7.30;99.90
24470;DHT22;12635;50.852;5.676;2023-02-12T01:46:41;7.20;99.90
24470;DHT22;12635;50.852;5.676;2023-02-12T01:49:10;7.20;99.90
24470;DHT22;12635;50.852;5.676;2023-02-12T01:51:41;7.20;99.90
24470;DHT22;12635;50.852;5.676;2023-02-12T01:54:09;7.30;99.90
24470;DHT22;12635;50.852;5.676;2023-02-12T01:56:36;7.30;99.90
24470;DHT22;12635;50.852;5.676;2023-02-12T01:59:03;7.30;99.90
24470;DHT22;12635;50.852;5.676;2023-02-12T02:01:31;7.30;99.90
24470;DHT22;12635;50.852;5.676;2023-02-12T02:03:59;7.30;99.90
24470;DHT22;12635;50.852;5.676;2023-02-12T02:06:27;7.20;99.90
24470;DHT22;12635;50.852;5.676;2023-02-12T02:08:58;7.20;99.90
24470;DHT22;12635;50.852;5.676;2023-02-12T02:11:25;7.20;99.90
24470;DHT22;12635;50.852;5.676;2023-02-12T02:14:09;7.20;99.90
24470;DHT22;12635;50.852;5.676;2023-02-12T02:16:56;7.30;99.90
24470;DHT22;12635;50.852;5.676;2023-02-12T02:19:28;7.20;99.90
24470;DHT22;12635;50.852;5.676;2023-02-12T02:22:07;7.20;99.90
24470;DHT22;12635;50.852;5.676;2023-02-12T02:27:30;7.20;99.90
24470;DHT22;12635;50.852;5.676;2023-02-12T02:32:52;7.40;99.90
24470;DHT22;12635;50.852;5.676;2023-02-12T02:35:23;7.40;99.90
24470;DHT22;12635;50.852;5.676;2023-02-12T02:37:55;7.40;99.90
24470;DHT22;12635;50.852;5.676;2023-02-12T02:40:24;7.50;99.90
24470;DHT22;12635;50.852;5.676;2023-02-12T02:42:54;7.50;99.90
24470;DHT22;12635;50.852;5.676;2023-02-12T02:45:25;7.50;99.90
24470;DHT22;12635;50.852;5.676;2023-02-12T02:47:57;7.50;99.90
24470;DHT22;12635;50.852;5.676;2023-02-12T02:50:26;7.50;99.90
24470;DHT22;12635;50.852;5.676;2023-02-12T02:52:53;7.50;99.90
24470;DHT22;12635;50.852;5.676;2023-02-12T02:55:23;7.50;99.90
24470;DHT22;12635;50.852;5.676;2023-02-12T02:57:53;7.50;99.90
24470;DHT22;12635;50.852;5.676;2023-02-12T03:00:22;7.50;99.90
24470;DHT22;12635;50.852;5.676;2023-02-12T03:02:52;7.50;99.90
24470;DHT22;12635;50.852;5.676;2023-02-12T03:05:23;7.50;99.90
24470;DHT22;12635;50.852;5.676;2023-02-12T03:07:52;7.50;99.90
24470;DHT22;12635;50.852;5.676;2023-02-12T03:10:21;7.60;99.90
24470;DHT22;12635;50.852;5.676;2023-02-12T03:12:50;7.60;99.90
24470;DHT22;12635;50.852;5.676;2023-02-12T03:15:19;7.50;99.90
24470;DHT22;12635;50.852;5.676;2023-02-12T03:17:49;7.50;99.90
24470;DHT22;12635;50.852;5.676;2023-02-12T03:20:16;7.50;99.90
24470;DHT22;12635;50.852;5.676;2023-02-12T03:22:47;7.50;99.90
24470;DHT22;12635;50.852;5.676;2023-02-12T03:25:16;7.50;99.90
24470;DHT22;12635;50.852;5.676;2023-02-12T03:27:44;7.50;99.90
24470;DHT22;12635;50.852;5.676;2023-02-12T03:30:12;7.60;99.90
24470;DHT22;12635;50.852;5.676;2023-02-12T03:32:41;7.60;99.90
24470;DHT22;12635;50.852;5.676;2023-02-12T03:35:12;7.60;99.90
24470;DHT22;12635;50.852;5.676;2023-02-12T03:37:40;7.50;99.90
24470;DHT22;12635;50.852;5.676;2023-02-12T03:40:12;7.60;99.90
24470;DHT22;12635;50.852;5.676;2023-02-12T03:42:44;7.50;99.90
24470;DHT22;12635;50.852;5.676;2023-02-12T03:45:15;7.50;99.90
24470;DHT22;12635;50.852;5.676;2023-02-12T03:47:46;7.50;99.90
24470;DHT22;12635;50.852;5.676;2023-02-12T03:50:14;7.50;99.90
24470;DHT22;12635;50.852;5.676;2023-02-12T03:52:42;7.70;99.90
24470;DHT22;12635;50.852;5.676;2023-02-12T03:55:10;7.70;99.90
24470;DHT22;12635;50.852;5.676;2023-02-12T03:57:39;7.60;99.90
24470;DHT22;12635;50.852;5.676;2023-02-12T04:00:08;7.60;99.90
24470;DHT22;12635;50.852;5.676;2023-02-12T04:02:35;7.60;99.90
24470;DHT22;12635;50.852;5.676;2023-02-12T04:05:03;7.60;99.90
24470;DHT22;12635;50.852;5.676;2023-02-12T04:07:30;7.60;99.90
24470;DHT22;12635;50.852;5.676;2023-02-12T04:09:57;7.60;99.90
24470;DHT22;12635;50.852;5.676;2023-02-12T04:12:29;7.60;99.90
24470;DHT22;12635;50.852;5.676;2023-02-12T04:15:03;7.60;99.90
24470;DHT22;12635;50.852;5.676;2023-02-12T04:17:34;7.50;99.90
24470;DHT22;12635;50.852;5.676;2023-02-12T04:20:09;7.50;99.90
24470;DHT22;12635;50.852;5.676;2023-02-12T04:22:44;7.60;99.90
24470;DHT22;12635;50.852;5.676;2023-02-12T04:25:15;7.70;99.90
24470;DHT22;12635;50.852;5.676;2023-02-12T04:27:44;7.70;99.90
24470;DHT22;12635;50.852;5.676;2023-02-12T04:30:17;7.60;99.90
24470;DHT22;12635;50.852;5.676;2023-02-12T04:32:46;7.50;99.90
24470;DHT22;12635;50.852;5.676;2023-02-12T04:35:15;7.50;99.90
24470;DHT22;12635;50.852;5.676;2023-02-12T04:37:44;7.60;99.90
24470;DHT22;12635;50.852;5.676;2023-02-12T04:40:14;7.60;99.90
24470;DHT22;12635;50.852;5.676;2023-02-12T04:42:42;7.60;99.90
24470;DHT22;12635;50.852;5.676;2023-02-12T04:45:10;7.60;99.90
24470;DHT22;12635;50.852;5.676;2023-02-12T04:47:39;7.60;99.90
24470;DHT22;12635;50.852;5.676;2023-02-12T04:50:06;7.60;99.90
24470;DHT22;12635;50.852;5.676;2023-02-12T04:52:33;7.60;99.90
24470;DHT22;12635;50.852;5.676;2023-02-12T04:55:00;7.60;99.90
24470;DHT22;12635;50.852;5.676;2023-02-12T04:57:27;7.60;99.90
24470;DHT22;12635;50.852;5.676;2023-02-12T04:59:54;7.60;99.90
24470;DHT22;12635;50.852;5.676;2023-02-12T05:02:21;7.60;99.90
24470;DHT22;12635;50.852;5.676;2023-02-12T05:04:50;7.50;99.90
24470;DHT22;12635;50.852;5.676;2023-02-12T05:07:17;7.50;99.90
24470;DHT22;12635;50.852;5.676;2023-02-12T05:09:43;7.50;99.90
24470;DHT22;12635;50.852;5.676;2023-02-12T05:12:10;7.50;99.90
24470;DHT22;12635;50.852;5.676;2023-02-12T05:14:37;7.40;99.90
24470;DHT22;12635;50.852;5.676;2023-02-12T05:17:04;7.50;99.90
24470;DHT22;12635;50.852;5.676;2023-02-12T05:19:31;7.50;99.90
24470;DHT22;12635;50.852;5.676;2023-02-12T05:21:59;7.50;99.90
24470;DHT22;12635;50.852;5.676;2023-02-12T05:24:26;7.50;99.90
24470;DHT22;12635;50.852;5.676;2023-02-12T05:26:53;7.50;99.90
24470;DHT22;12635;50.852;5.676;2023-02-12T05:29:20;7.50;99.90
24470;DHT22;12635;50.852;5.676;2023-02-12T05:31:47;7.50;99.90
24470;DHT22;12635;50.852;5.676;2023-02-12T05:34:14;7.60;99.90
24470;DHT22;12635;50.852;5.676;2023-02-12T05:36:41;7.60;99.90
24470;DHT22;12635;50.852;5.676;2023-02-12T05:39:10;7.60;99.90
24470;DHT22;12635;50.852;5.676;2023-02-12T05:41:37;7.60;99.90
24470;DHT22;12635;50.852;5.676;2023-02-12T05:44:04;7.60;99.90
24470;DHT22;12635;50.852;5.676;2023-02-12T05:46:31;7.50;99.90
24470;DHT22;12635;50.852;5.676;2023-02-12T05:48:58;7.50;99.90
24470;DHT22;12635;50.852;5.676;2023-02-12T05:51:25;7.50;99.90
24470;DHT22;12635;50.852;5.676;2023-02-12T05:53:55;7.50;99.90
24470;DHT22;12635;50.852;5.676;2023-02-12T05:56:25;7.50;99.90
24470;DHT22;12635;50.852;5.676;2023-02-12T05:58:52;7.40;99.90
24470;DHT22;12635;50.852;5.676;2023-02-12T06:01:20;7.50;99.90
24470;DHT22;12635;50.852;5.676;2023-02-12T06:03:48;7.40;99.90
24470;DHT22;12635;50.852;5.676;2023-02-12T06:06:15;7.40;99.90
24470;DHT22;12635;50.852;5.676;2023-02-12T06:08:41;7.50;99.90
24470;DHT22;12635;50.852;5.676;2023-02-12T06:11:09;7.50;99.90
24470;DHT22;12635;50.852;5.676;2023-02-12T06:13:38;7.60;99.90
24470;DHT22;12635;50.852;5.676;2023-02-12T06:16:05;7.60;99.90
24470;DHT22;12635;50.852;5.676;2023-02-12T06:18:33;7.60;99.90
24470;DHT22;12635;50.852;5.676;2023-02-12T06:21:01;7.60;99.90
24470;DHT22;12635;50.852;5.676;2023-02-12T06:23:28;7.60;99.90
24470;DHT22;12635;50.852;5.676;2023-02-12T06:25:55;7.60;99.90
24470;DHT22;12635;50.852;5.676;2023-02-12T06:28:22;7.60;99.90
24470;DHT22;12635;50.852;5.676;2023-02-12T06:30:51;7.50;99.90
24470;DHT22;12635;50.852;5.676;2023-02-12T06:33:18;7.50;99.90
24470;DHT22;12635;50.852;5.676;2023-02-12T06:35:45;7.50;99.90
24470;DHT22;12635;50.852;5.676;2023-02-12T06:38:12;7.50;99.90
24470;DHT22;12635;50.852;5.676;2023-02-12T06:40:39;7.50;99.90
24470;DHT22;12635;50.852;5.676;2023-02-12T06:43:05;7.50;99.90
24470;DHT22;12635;50.852;5.676;2023-02-12T06:45:32;7.50;99.90
24470;DHT22;12635;50.852;5.676;2023-02-12T06:48:01;7.60;99.90
24470;DHT22;12635;50.852;5.676;2023-02-12T06:50:28;7.50;99.90
24470;DHT22;12635;50.852;5.676;2023-02-12T06:52:56;7.60;99.90
24470;DHT22;12635;50.852;5.676;2023-02-12T06:55:23;7.60;99.90
24470;DHT22;12635;50.852;5.676;2023-02-12T06:57:50;7.60;99.90
24470;DHT22;12635;50.852;5.676;2023-02-12T07:00:17;7.60;99.90
24470;DHT22;12635;50.852;5.676;2023-02-12T07:02:44;7.50;99.90
24470;DHT22;12635;50.852;5.676;2023-02-12T07:05:18;7.50;99.90
24470;DHT22;12635;50.852;5.676;2023-02-12T07:07:45;7.50;99.90
24470;DHT22;12635;50.852;5.676;2023-02-12T07:10:12;7.50;99.90
24470;DHT22;12635;50.852;5.676;2023-02-12T07:12:39;7.50;99.90
24470;DHT22;12635;50.852;5.676;2023-02-12T07:15:06;7.50;99.90
24470;DHT22;12635;50.852;5.676;2023-02-12T07:17:33;7.50;99.90
24470;DHT22;12635;50.852;5.676;2023-02-12T07:20:00;7.50;99.90
24470;DHT22;12635;50.852;5.676;2023-02-12T07:22:28;7.60;99.90
24470;DHT22;12635;50.852;5.676;2023-02-12T07:24:55;7.60;99.90
24470;DHT22;12635;50.852;5.676;2023-02-12T07:27:22;7.60;99.90
24470;DHT22;12635;50.852;5.676;2023-02-12T07:29:49;7.70;99.90
24470;DHT22;12635;50.852;5.676;2023-02-12T07:32:16;7.70;99.90
24470;DHT22;12635;50.852;5.676;2023-02-12T07:34:43;7.70;99.90
24470;DHT22;12635;50.852;5.676;2023-02-12T07:37:10;7.70;99.90
24470;DHT22;12635;50.852;5.676;2023-02-12T07:39:38;7.80;99.90
24470;DHT22;12635;50.852;5.676;2023-02-12T07:42:05;7.90;99.90
24470;DHT22;12635;50.852;5.676;2023-02-12T07:44:33;7.90;99.90
24470;DHT22;12635;50.852;5.676;2023-02-12T07:47:00;8.00;99.90
24470;DHT22;12635;50.852;5.676;2023-02-12T07:49:28;8.00;99.90
24470;DHT22;12635;50.852;5.676;2023-02-12T07:51:54;8.10;99.90
24470;DHT22;12635;50.852;5.676;2023-02-12T07:54:21;8.10;99.90
24470;DHT22;12635;50.852;5.676;2023-02-12T07:56:50;8.10;99.90
24470;DHT22;12635;50.852;5.676;2023-02-12T07:59:17;8.20;99.90
24470;DHT22;12635;50.852;5.676;2023-02-12T08:01:45;8.30;99.90
24470;DHT22;12635;50.852;5.676;2023-02-12T08:04:13;8.30;99.90
24470;DHT22;12635;50.852;5.676;2023-02-12T08:06:41;8.30;99.90
24470;DHT22;12635;50.852;5.676;2023-02-12T08:09:10;8.40;99.90
24470;DHT22;12635;50.852;5.676;2023-02-12T08:11:38;8.50;99.90
24470;DHT22;12635;50.852;5.676;2023-02-12T08:14:06;8.50;99.90
24470;DHT22;12635;50.852;5.676;2023-02-12T08:16:35;8.60;99.90
24470;DHT22;12635;50.852;5.676;2023-02-12T08:19:02;8.60;99.90
24470;DHT22;12635;50.852;5.676;2023-02-12T08:21:29;8.60;99.90
24470;DHT22;12635;50.852;5.676;2023-02-12T08:23:56;8.60;99.90
24470;DHT22;12635;50.852;5.676;2023-02-12T08:26:24;8.60;99.90
24470;DHT22;12635;50.852;5.676;2023-02-12T08:28:54;8.70;99.90
24470;DHT22;12635;50.852;5.676;2023-02-12T08:31:23;8.60;99.90
24470;DHT22;12635;50.852;5.676;2023-02-12T08:33:51;8.70;99.90
24470;DHT22;12635;50.852;5.676;2023-02-12T08:36:19;8.70;99.90
24470;DHT22;12635;50.852;5.676;2023-02-12T08:38:46;8.70;99.90
24470;DHT22;12635;50.852;5.676;2023-02-12T08:41:14;8.80;99.90
24470;DHT22;12635;50.852;5.676;2023-02-12T08:43:42;8.90;99.90
24470;DHT22;12635;50.852;5.676;2023-02-12T08:46:10;8.90;99.90
24470;DHT22;12635;50.852;5.676;2023-02-12T08:48:38;8.90;99.90
24470;DHT22;12635;50.852;5.676;2023-02-12T08:51:06;9.00;99.90
24470;DHT22;12635;50.852;5.676;2023-02-12T08:53:33;8.90;99.90
24470;DHT22;12635;50.852;5.676;2023-02-12T08:56:00;9.10;99.90
24470;DHT22;12635;50.852;5.676;2023-02-12T08:58:27;9.20;99.90
24470;DHT22;12635;50.852;5.676;2023-02-12T09:00:54;9.20;99.90
24470;DHT22;12635;50.852;5.676;2023-02-12T09:03:20;9.20;99.90
24470;DHT22;12635;50.852;5.676;2023-02-12T09:05:49;9.30;99.90
24470;DHT22;12635;50.852;5.676;2023-02-12T09:08:16;9.20;99.90
24470;DHT22;12635;50.852;5.676;2023-02-12T09:10:43;9.20;99.90
24470;DHT22;12635;50.852;5.676;2023-02-12T09:13:11;9.20;99.90
24470;DHT22;12635;50.852;5.676;2023-02-12T09:15:38;9.30;99.90
24470;DHT22;12635;50.852;5.676;2023-02-12T09:18:05;9.30;99.90
24470;DHT22;12635;50.852;5.676;2023-02-12T09:20:32;9.20;99.90
24470;DHT22;12635;50.852;5.676;2023-02-12T09:23:01;9.20;99.90
24470;DHT22;12635;50.852;5.676;2023-02-12T09:25:27;9.00;99.90
24470;DHT22;12635;50.852;5.676;2023-02-12T09:27:54;9.10;99.90
24470;DHT22;12635;50.852;5.676;2023-02-12T09:30:22;9.10;99.90
24470;DHT22;12635;50.852;5.676;2023-02-12T09:32:48;9.00;99.90
24470;DHT22;12635;50.852;5.676;2023-02-12T09:35:15;9.00;99.90
24470;DHT22;12635;50.852;5.676;2023-02-12T09:37:42;9.00;99.90
24470;DHT22;12635;50.852;5.676;2023-02-12T09:40:15;9.10;99.90
24470;DHT22;12635;50.852;5.676;2023-02-12T09:42:49;9.10;99.90
24470;DHT22;12635;50.852;5.676;2023-02-12T09:45:19;9.20;99.90
24470;DHT22;12635;50.852;5.676;2023-02-12T09:47:47;9.20;99.90
24470;DHT22;12635;50.852;5.676;2023-02-12T09:50:27;9.00;99.90
24470;DHT22;12635;50.852;5.676;2023-02-12T09:52:57;8.90;99.90
24470;DHT22;12635;50.852;5.676;2023-02-12T09:55:26;8.80;99.90
24470;DHT22;12635;50.852;5.676;2023-02-12T09:57:53;8.90;99.90
24470;DHT22;12635;50.852;5.676;2023-02-12T10:00:21;8.90;99.90
24470;DHT22;12635;50.852;5.676;2023-02-12T10:02:50;9.00;99.90
24470;DHT22;12635;50.852;5.676;2023-02-12T10:05:19;9.00;99.90
24470;DHT22;12635;50.852;5.676;2023-02-12T10:07:52;9.10;99.90
24470;DHT22;12635;50.852;5.676;2023-02-12T10:10:26;9.10;99.90
24470;DHT22;12635;50.852;5.676;2023-02-12T10:12:58;9.10;99.90
24470;DHT22;12635;50.852;5.676;2023-02-12T10:15:36;9.10;99.90
24470;DHT22;12635;50.852;5.676;2023-02-12T10:18:08;9.10;99.90
24470;DHT22;12635;50.852;5.676;2023-02-12T10:20:39;9.10;99.90
24470;DHT22;12635;50.852;5.676;2023-02-12T10:23:15;9.10;99.90
24470;DHT22;12635;50.852;5.676;2023-02-12T10:25:48;9.20;99.90
24470;DHT22;12635;50.852;5.676;2023-02-12T10:28:16;9.20;99.90
24470;DHT22;12635;50.852;5.676;2023-02-12T10:30:47;9.00;99.90
24470;DHT22;12635;50.852;5.676;2023-02-12T10:33:16;9.20;99.90
24470;DHT22;12635;50.852;5.676;2023-02-12T10:35:46;9.30;99.90
24470;DHT22;12635;50.852;5.676;2023-02-12T10:38:16;9.20;99.90
24470;DHT22;12635;50.852;5.676;2023-02-12T10:40:44;8.90;99.90
24470;DHT22;12635;50.852;5.676;2023-02-12T10:43:12;8.90;99.90
24470;DHT22;12635;50.852;5.676;2023-02-12T10:45:41;8.90;99.90
24470;DHT22;12635;50.852;5.676;2023-02-12T10:48:09;8.90;99.90
24470;DHT22;12635;50.852;5.676;2023-02-12T10:50:39;8.90;99.90
24470;DHT22;12635;50.852;5.676;2023-02-12T10:53:08;8.90;99.90
24470;DHT22;12635;50.852;5.676;2023-02-12T10:55:38;9.20;99.90
24470;DHT22;12635;50.852;5.676;2023-02-12T10:58:04;9.30;99.90
24470;DHT22;12635;50.852;5.676;2023-02-12T11:00:44;9.30;99.90
24470;DHT22;12635;50.852;5.676;2023-02-12T11:03:19;9.30;99.90
24470;DHT22;12635;50.852;5.676;2023-02-12T11:05:46;9.10;99.90
24470;DHT22;12635;50.852;5.676;2023-02-12T11:11:02;9.20;99.90
24470;DHT22;12635;50.852;5.676;2023-02-12T11:13:30;9.40;99.90
24470;DHT22;12635;50.852;5.676;2023-02-12T11:15:58;9.40;99.90
24470;DHT22;12635;50.852;5.676;2023-02-12T11:18:26;9.40;99.90
24470;DHT22;12635;50.852;5.676;2023-02-12T11:20:56;9.30;99.90
24470;DHT22;12635;50.852;5.676;2023-02-12T11:23:25;9.50;99.90
24470;DHT22;12635;50.852;5.676;2023-02-12T11:25:54;9.60;99.90
24470;DHT22;12635;50.852;5.676;2023-02-12T11:28:21;9.70;99.90
24470;DHT22;12635;50.852;5.676;2023-02-12T11:30:49;9.70;99.90
24470;DHT22;12635;50.852;5.676;2023-02-12T11:33:22;9.80;99.90
24470;DHT22;12635;50.852;5.676;2023-02-12T11:35:50;9.80;99.90
24470;DHT22;12635;50.852;5.676;2023-02-12T11:38:20;9.80;99.90
24470;DHT22;12635;50.852;5.676;2023-02-12T11:40:48;9.60;99.90
24470;DHT22;12635;50.852;5.676;2023-02-12T11:43:16;9.80;99.90
24470;DHT22;12635;50.852;5.676;2023-02-12T11:45:44;9.80;99.90
24470;DHT22;12635;50.852;5.676;2023-02-12T11:48:15;9.80;99.90
24470;DHT22;12635;50.852;5.676;2023-02-12T11:50:46;9.80;99.90
24470;DHT22;12635;50.852;5.676;2023-02-12T11:53:18;9.90;99.90
24470;DHT22;12635;50.852;5.676;2023-02-12T11:55:51;10.00;99.90
24470;DHT22;12635;50.852;5.676;2023-02-12T11:58:20;9.80;99.90
24470;DHT22;12635;50.852;5.676;2023-02-12T12:00:49;9.70;99.90
24470;DHT22;12635;50.852;5.676;2023-02-12T12:03:18;9.80;99.90
24470;DHT22;12635;50.852;5.676;2023-02-12T12:05:48;9.80;99.90
24470;DHT22;12635;50.852;5.676;2023-02-12T12:08:18;9.90;99.90
24470;DHT22;12635;50.852;5.676;2023-02-12T12:10:48;9.90;99.90
24470;DHT22;12635;50.852;5.676;2023-02-12T12:13:18;10.00;99.90
24470;DHT22;12635;50.852;5.676;2023-02-12T12:15:48;10.10;99.90
24470;DHT22;12635;50.852;5.676;2023-02-12T12:18:35;10.10;99.90
24470;DHT22;12635;50.852;5.676;2023-02-12T12:21:24;10.10;99.90
24470;DHT22;12635;50.852;5.676;2023-02-12T12:23:54;9.80;99.90
24470;DHT22;12635;50.852;5.676;2023-02-12T12:26:23;9.40;99.90
24470;DHT22;12635;50.852;5.676;2023-02-12T12:28:51;9.30;99.90
24470;DHT22;12635;50.852;5.676;2023-02-12T12:31:19;9.20;99.90
24470;DHT22;12635;50.852;5.676;2023-02-12T12:33:48;9.30;99.90
24470;DHT22;12635;50.852;5.676;2023-02-12T12:36:26;9.40;99.90
24470;DHT22;12635;50.852;5.676;2023-02-12T12:38:56;9.60;99.90
24470;DHT22;12635;50.852;5.676;2023-02-12T12:41:29;9.70;99.90
24470;DHT22;12635;50.852;5.676;2023-02-12T12:44:04;9.80;99.90
24470;DHT22;12635;50.852;5.676;2023-02-12T12:46:46;9.90;99.90
24470;DHT22;12635;50.852;5.676;2023-02-12T12:49:28;9.80;99.90
24470;DHT22;12635;50.852;5.676;2023-02-12T12:54:57;10.00;99.90
24470;DHT22;12635;50.852;5.676;2023-02-12T12:57:30;10.00;99.90
24470;DHT22;12635;50.852;5.676;2023-02-12T13:00:02;9.90;99.90
24470;DHT22;12635;50.852;5.676;2023-02-12T13:02:54;10.10;99.90
24470;DHT22;12635;50.852;5.676;2023-02-12T13:05:38;10.10;99.90
24470;DHT22;12635;50.852;5.676;2023-02-12T13:08:11;10.20;99.90
24470;DHT22;12635;50.852;5.676;2023-02-12T13:10:45;10.20;99.90
24470;DHT22;12635;50.852;5.676;2023-02-12T13:13:19;10.10;99.90
24470;DHT22;12635;50.852;5.676;2023-02-12T13:15:52;10.10;99.90
24470;DHT22;12635;50.852;5.676;2023-02-12T13:18:24;10.10;99.90
24470;DHT22;12635;50.852;5.676;2023-02-12T13:20:56;10.00;99.90
24470;DHT22;12635;50.852;5.676;2023-02-12T13:23:28;9.70;99.90
24470;DHT22;12635;50.852;5.676;2023-02-12T13:26:01;9.60;99.90
24470;DHT22;12635;50.852;5.676;2023-02-12T13:28:33;9.70;99.90
24470;DHT22;12635;50.852;5.676;2023-02-12T13:31:01;9.90;99.90
24470;DHT22;12635;50.852;5.676;2023-02-12T13:33:32;9.80;99.90
24470;DHT22;12635;50.852;5.676;2023-02-12T13:36:03;10.00;99.90
24470;DHT22;12635;50.852;5.676;2023-02-12T13:38:32;10.10;99.90
24470;DHT22;12635;50.852;5.676;2023-02-12T13:41:02;10.00;99.90
24470;DHT22;12635;50.852;5.676;2023-02-12T13:43:34;10.00;99.90
24470;DHT22;12635;50.852;5.676;2023-02-12T13:46:02;10.10;99.90
24470;DHT22;12635;50.852;5.676;2023-02-12T13:48:39;10.10;99.90
24470;DHT22;12635;50.852;5.676;2023-02-12T13:51:09;9.80;99.90
24470;DHT22;12635;50.852;5.676;2023-02-12T13:53:44;9.60;99.90
24470;DHT22;12635;50.852;5.676;2023-02-12T13:56:17;9.70;99.90
24470;DHT22;12635;50.852;5.676;2023-02-12T13:58:48;9.70;99.90
24470;DHT22;12635;50.852;5.676;2023-02-12T14:04:21;9.50;99.90
24470;DHT22;12635;50.852;5.676;2023-02-12T14:06:53;9.50;99.90
24470;DHT22;12635;50.852;5.676;2023-02-12T14:09:21;9.70;99.90
24470;DHT22;12635;50.852;5.676;2023-02-12T14:11:53;9.70;99.90
24470;DHT22;12635;50.852;5.676;2023-02-12T14:14:23;9.80;99.90
24470;DHT22;12635;50.852;5.676;2023-02-12T14:16:51;9.70;99.90
24470;DHT22;12635;50.852;5.676;2023-02-12T14:25:00;9.70;99.90
24470;DHT22;12635;50.852;5.676;2023-02-12T14:27:31;9.60;99.90
24470;DHT22;12635;50.852;5.676;2023-02-12T14:30:01;9.60;99.90
24470;DHT22;12635;50.852;5.676;2023-02-12T14:40:49;9.60;99.90
24470;DHT22;12635;50.852;5.676;2023-02-12T14:43:29;9.60;99.90
24470;DHT22;12635;50.852;5.676;2023-02-12T14:45:57;9.40;99.90
24470;DHT22;12635;50.852;5.676;2023-02-12T14:48:49;9.30;99.90
24470;DHT22;12635;50.852;5.676;2023-02-12T14:51:19;9.30;99.90
24470;DHT22;12635;50.852;5.676;2023-02-12T14:53:47;9.30;99.90
24470;DHT22;12635;50.852;5.676;2023-02-12T14:56:17;9.20;99.90
24470;DHT22;12635;50.852;5.676;2023-02-12T14:58:46;9.30;99.90
24470;DHT22;12635;50.852;5.676;2023-02-12T15:01:13;9.30;99.90
24470;DHT22;12635;50.852;5.676;2023-02-12T15:03:42;9.40;99.90
24470;DHT22;12635;50.852;5.676;2023-02-12T15:06:12;9.40;99.90
24470;DHT22;12635;50.852;5.676;2023-02-12T15:08:42;9.40;99.90
24470;DHT22;12635;50.852;5.676;2023-02-12T15:11:19;9.30;99.90
24470;DHT22;12635;50.852;5.676;2023-02-12T15:13:51;9.30;99.90
24470;DHT22;12635;50.852;5.676;2023-02-12T15:16:21;9.30;99.90
24470;DHT22;12635;50.852;5.676;2023-02-12T15:18:50;9.20;99.90
24470;DHT22;12635;50.852;5.676;2023-02-12T15:21:19;9.20;99.90
24470;DHT22;12635;50.852;5.676;2023-02-12T15:23:56;9.20;99.90
24470;DHT22;12635;50.852;5.676;2023-02-12T15:26:23;9.10;99.90
24470;DHT22;12635;50.852;5.676;2023-02-12T15:28:53;9.00;99.90
24470;DHT22;12635;50.852;5.676;2023-02-12T15:31:20;9.10;99.90
24470;DHT22;12635;50.852;5.676;2023-02-12T15:33:49;9.00;99.90
24470;DHT22;12635;50.852;5.676;2023-02-12T15:36:18;8.90;99.90
24470;DHT22;12635;50.852;5.676;2023-02-12T15:38:47;8.90;99.90
24470;DHT22;12635;50.852;5.676;2023-02-12T15:41:22;8.90;99.90
24470;DHT22;12635;50.852;5.676;2023-02-12T15:43:49;8.90;99.90
24470;DHT22;12635;50.852;5.676;2023-02-12T15:46:18;8.80;99.90
24470;DHT22;12635;50.852;5.676;2023-02-12T15:48:44;8.80;99.90
24470;DHT22;12635;50.852;5.676;2023-02-12T15:51:13;8.80;99.90
24470;DHT22;12635;50.852;5.676;2023-02-12T15:53:42;8.80;99.90
24470;DHT22;12635;50.852;5.676;2023-02-12T15:56:10;8.80;99.90
24470;DHT22;12635;50.852;5.676;2023-02-12T15:58:40;8.80;99.90
24470;DHT22;12635;50.852;5.676;2023-02-12T16:01:12;8.70;99.90
24470;DHT22;12635;50.852;5.676;2023-02-12T16:03:41;8.70;99.90
24470;DHT22;12635;50.852;5.676;2023-02-12T16:06:09;8.70;99.90
24470;DHT22;12635;50.852;5.676;2023-02-12T16:08:38;8.70;99.90
24470;DHT22;12635;50.852;5.676;2023-02-12T16:11:06;8.60;99.90
24470;DHT22;12635;50.852;5.676;2023-02-12T16:13:41;8.60;99.90
24470;DHT22;12635;50.852;5.676;2023-02-12T16:16:15;8.60;99.90
24470;DHT22;12635;50.852;5.676;2023-02-12T16:18:44;8.60;99.90
24470;DHT22;12635;50.852;5.676;2023-02-12T16:21:12;8.50;99.90
24470;DHT22;12635;50.852;5.676;2023-02-12T16:23:41;8.50;99.90
24470;DHT22;12635;50.852;5.676;2023-02-12T16:26:08;8.50;99.90